createdAt,value
2024-05-09T00:02:27.899Z,99487.42
2024-05-09T00:07:30.931Z,99484.44
2024-05-09T00:12:33.902Z,99486.20
2024-05-09T00:17:37.140Z,99488.16
2024-05-09T00:22:40.104Z,99486.05
2024-05-09T00:27:43.065Z,99481.29
2024-05-09T00:32:46.071Z,99484.30
2024-05-09T00:37:49.234Z,99488.31
2024-05-09T00:42:52.176Z,99498.98
2024-05-09T00:47:55.844Z,99496.53
2024-05-09T00:52:59.028Z,99498.30
2024-05-09T00:58:02.921Z,99493.91
2024-05-09T01:03:06.260Z,99494.08
2024-05-09T01:08:10.523Z,99497.05
2024-05-09T01:13:13.701Z,99494.25
2024-05-09T01:18:16.944Z,99496.89
2024-05-09T01:23:19.991Z,99493.56
2024-05-09T01:28:22.831Z,99494.09
2024-05-09T01:33:26.088Z,99495.11
2024-05-09T01:38:29.329Z,99503.13
2024-05-09T01:43:32.418Z,99503.39
2024-05-09T01:48:35.386Z,99503.05
2024-05-09T01:53:38.464Z,99500.27
2024-05-09T01:58:41.671Z,99497.41
2024-05-09T02:03:47.910Z,99501.98
2024-05-09T02:08:50.975Z,99494.13
2024-05-09T02:13:54.181Z,99498.13
2024-05-09T02:18:57.199Z,99497.16
2024-05-09T02:24:00.838Z,99493.32
2024-05-09T02:29:03.953Z,99483.87
2024-05-09T02:34:06.935Z,99488.84
2024-05-09T02:39:09.990Z,99494.13
2024-05-09T02:44:13.012Z,99499.20
2024-05-09T02:49:16.382Z,99501.71
2024-05-09T02:54:19.366Z,99503.63
2024-05-09T02:59:22.546Z,99504.59
2024-05-09T03:04:25.746Z,99498.53
2024-05-09T03:09:29.256Z,99500.45
2024-05-09T03:14:32.206Z,99499.73
2024-05-09T03:19:36.508Z,99502.99
2024-05-09T03:24:39.554Z,99509.11
2024-05-09T03:29:42.836Z,99506.02
2024-05-09T03:34:45.858Z,99506.65
2024-05-09T03:39:48.972Z,99509.39
2024-05-09T03:44:52.660Z,99511.98
2024-05-09T03:49:55.875Z,99517.63
2024-05-09T03:54:58.868Z,99521.31
2024-05-09T04:00:02.870Z,99530.33
2024-05-09T04:05:07.476Z,99529.63
2024-05-09T04:10:17.116Z,99531.15
2024-05-09T04:15:26.973Z,99527.08
2024-05-09T04:20:37.704Z,99526.64
2024-05-09T04:25:45.117Z,99534.45
2024-05-09T04:30:48.684Z,99530.70
2024-05-09T04:35:51.689Z,99532.02
2024-05-09T04:40:54.639Z,99528.85
2024-05-09T04:45:57.711Z,99534.61
2024-05-09T04:51:01.990Z,99536.27
2024-05-09T04:56:06.436Z,99535.14
2024-05-09T05:01:09.390Z,99543.70
2024-05-09T05:06:12.307Z,99550.14
2024-05-09T05:11:15.238Z,99552.65
2024-05-09T05:16:18.460Z,99566.23
2024-05-09T05:21:21.618Z,99568.42
2024-05-09T05:26:25.762Z,99571.98
2024-05-09T05:31:30.858Z,99571.00
2024-05-09T05:36:33.717Z,99568.08
2024-05-09T05:41:36.778Z,99567.30
2024-05-09T05:46:40.152Z,99570.45
2024-05-09T05:51:43.099Z,99568.78
2024-05-09T05:56:46.099Z,99574.61
2024-05-09T06:01:49.424Z,99574.30
2024-05-09T06:06:52.369Z,99571.55
2024-05-09T06:11:55.259Z,99573.19
2024-05-09T06:16:58.565Z,99572.18
2024-05-09T06:22:03.034Z,99577.88
2024-05-09T06:27:06.205Z,99581.94
2024-05-09T06:32:09.226Z,99578.87
2024-05-09T06:37:12.249Z,99576.23
2024-05-09T06:42:15.238Z,99582.29
2024-05-09T06:47:18.213Z,99577.41
2024-05-09T06:52:21.371Z,99577.80
2024-05-09T06:57:24.397Z,99571.03
2024-05-09T07:02:28.058Z,99575.71
2024-05-09T07:07:31.034Z,99572.25
2024-05-09T07:12:34.049Z,99572.30
2024-05-09T07:17:38.228Z,99573.16
2024-05-09T07:22:41.474Z,99577.36
2024-05-09T07:27:44.365Z,99574.67
2024-05-09T07:32:47.760Z,99570.70
2024-05-09T07:37:51.478Z,99567.16
2024-05-09T07:42:54.422Z,99574.03
2024-05-09T07:49:44.283Z,99570.63
2024-05-09T07:53:38.588Z,99566.84
2024-05-09T07:58:44.185Z,99567.16
2024-05-09T08:03:47.359Z,99560.64
2024-05-09T08:08:50.851Z,99556.02
2024-05-09T08:13:53.761Z,99559.70
2024-05-09T08:18:56.908Z,99562.38
2024-05-09T08:23:59.976Z,99563.61
2024-05-09T08:29:03.412Z,99562.84
2024-05-09T08:34:07.083Z,99559.41
2024-05-09T08:39:10.447Z,99561.49
2024-05-09T08:44:13.798Z,99563.40
2024-05-09T08:49:17.007Z,99556.38
2024-05-09T08:54:21.317Z,99558.50
2024-05-09T08:59:28.094Z,99562.19
2024-05-09T09:04:31.486Z,99562.55
2024-05-09T09:09:35.711Z,99561.65
2024-05-09T09:14:38.700Z,99554.56
2024-05-09T09:19:42.644Z,99546.88
2024-05-09T09:24:45.843Z,99545.30
2024-05-09T09:29:49.145Z,99552.13
2024-05-09T09:34:52.181Z,99549.16
2024-05-09T09:39:55.226Z,99551.60
2024-05-09T09:45:04.672Z,99549.98
2024-05-09T09:50:14.331Z,99548.36
2024-05-09T09:55:22.168Z,99544.77
2024-05-09T10:00:32.449Z,99541.52
2024-05-09T10:05:37.238Z,99542.73
2024-05-09T10:10:46.868Z,99544.67
2024-05-09T10:15:54.521Z,99549.49
2024-05-09T10:20:59.406Z,99544.27
2024-05-09T10:26:05.233Z,99535.41
2024-05-09T10:31:13.906Z,99541.04
2024-05-09T10:36:27.372Z,99536.44
2024-05-09T10:41:30.371Z,99535.35
2024-05-09T10:46:33.389Z,99533.46
2024-05-09T10:51:37.298Z,99530.92
2024-05-09T10:56:42.007Z,99526.55
2024-05-09T11:01:45.132Z,99518.97
2024-05-09T11:06:48.293Z,99522.36
2024-05-09T11:11:51.482Z,99513.76
2024-05-09T11:17:01.998Z,99510.65
2024-05-09T11:22:05.382Z,99515.73
2024-05-09T11:27:08.245Z,99506.39
2024-05-09T11:32:13.660Z,99501.55
2024-05-09T11:37:16.776Z,99505.32
2024-05-09T11:42:20.929Z,99498.47
2024-05-09T11:47:24.757Z,99490.93
2024-05-09T11:52:27.875Z,99491.52
2024-05-09T11:57:30.819Z,99484.10
2024-05-09T12:02:34.066Z,99480.08
2024-05-09T12:07:37.084Z,99478.02
2024-05-09T12:12:39.957Z,99468.37
2024-05-09T12:17:43.277Z,99469.52
2024-05-09T12:22:47.714Z,99468.22
2024-05-09T12:27:51.106Z,99464.54
2024-05-09T12:32:54.219Z,99457.89
2024-05-09T12:37:57.275Z,99455.83
2024-05-09T12:43:00.282Z,99454.57
2024-05-09T12:48:04.776Z,99456.48
2024-05-09T12:53:07.869Z,99451.73
2024-05-09T12:58:11.117Z,99449.36
2024-05-09T13:03:15.403Z,99443.20
2024-05-09T13:08:18.575Z,99438.14
2024-05-09T13:13:21.641Z,99424.54
2024-05-09T13:18:25.325Z,99428.46
2024-05-09T13:23:28.387Z,99421.86
2024-05-09T13:28:33.542Z,99416.98
2024-05-09T13:33:36.735Z,99415.05
2024-05-09T13:38:39.696Z,99409.59
2024-05-09T13:43:42.924Z,99413.14
2024-05-09T13:48:45.951Z,99406.20
2024-05-09T13:53:49.081Z,99399.91
2024-05-09T13:58:52.291Z,99390.59
2024-05-09T14:03:55.463Z,99391.33
2024-05-09T14:08:58.516Z,99387.59
2024-05-09T14:14:01.440Z,99383.81
2024-05-09T14:19:04.784Z,99384.02
2024-05-09T14:24:07.778Z,99377.07
2024-05-09T14:29:10.808Z,99380.00
2024-05-09T14:34:14.008Z,99376.39
2024-05-09T14:39:17.155Z,99377.15
2024-05-09T14:44:20.050Z,99369.59
2024-05-09T14:49:23.020Z,99361.21
2024-05-09T14:54:25.972Z,99354.16
2024-05-09T14:59:29.297Z,99355.05
2024-05-09T15:04:32.429Z,99351.30
2024-05-09T15:09:36.359Z,99350.65
2024-05-09T15:14:39.604Z,99347.40
2024-05-09T15:19:45.267Z,99343.32
2024-05-09T15:24:48.516Z,99342.27
2024-05-09T15:29:51.811Z,99340.95
2024-05-09T15:35:02.572Z,99338.30
2024-05-09T15:40:12.116Z,99334.60
2024-05-09T15:45:18.280Z,99329.54
2024-05-09T15:50:28.839Z,99328.84
2024-05-09T15:55:39.354Z,99327.93
2024-05-09T16:00:44.799Z,99326.01
2024-05-09T16:05:50.515Z,99327.93
2024-05-09T16:10:53.768Z,99332.48
2024-05-09T16:15:57.421Z,99324.54
2024-05-09T16:21:01.650Z,99318.02
2024-05-09T16:26:05.633Z,99316.03
2024-05-09T16:31:08.646Z,99315.86
2024-05-09T16:36:11.598Z,99314.80
2024-05-09T16:41:15.611Z,99315.77
2024-05-09T16:46:18.812Z,99315.18
2024-05-09T16:51:22.075Z,99314.95
2024-05-09T16:56:26.280Z,99312.31
2024-05-09T17:01:30.914Z,99311.85
2024-05-09T17:06:34.169Z,99316.54
2024-05-09T17:11:37.335Z,99309.38
2024-05-09T17:16:40.404Z,99311.45
2024-05-09T17:21:43.499Z,99312.46
2024-05-09T17:26:46.604Z,99310.64
2024-05-09T17:31:49.624Z,99312.69
2024-05-09T17:36:52.780Z,99305.60
2024-05-09T17:41:55.742Z,99303.23
2024-05-09T17:46:58.743Z,99300.83
2024-05-09T17:52:01.861Z,99301.31
2024-05-09T17:57:08.595Z,99305.51
2024-05-09T18:02:11.938Z,99313.58
2024-05-09T18:07:15.327Z,99312.21
2024-05-09T18:12:18.434Z,99317.11
2024-05-09T18:17:23.559Z,99320.33
2024-05-09T18:22:28.282Z,99323.98
2024-05-09T18:27:31.582Z,99327.31
2024-05-09T18:32:34.911Z,99330.52
2024-05-09T18:37:42.778Z,99340.42
2024-05-09T18:42:45.783Z,99345.98
2024-05-09T18:47:49.325Z,99350.58
2024-05-09T18:52:52.571Z,99357.85
2024-05-09T18:57:55.582Z,99364.27
2024-05-09T19:02:58.964Z,99364.78
2024-05-09T19:08:02.180Z,99370.98
2024-05-09T19:13:10.165Z,99369.31
2024-05-09T19:18:25.937Z,99367.06
2024-05-09T19:23:32.596Z,99367.21
2024-05-09T19:28:41.259Z,99371.64
2024-05-09T19:33:44.405Z,99373.43
2024-05-09T19:38:51.604Z,99376.39
2024-05-09T19:43:55.600Z,99376.55
2024-05-09T19:48:58.865Z,99376.60
2024-05-09T19:54:04.113Z,99385.12
2024-05-09T19:59:07.102Z,99386.50
2024-05-09T20:04:10.498Z,99390.54
2024-05-09T20:11:08.788Z,99403.46
2024-05-09T20:16:12.158Z,99403.48
2024-05-09T20:21:15.665Z,99406.23
2024-05-09T20:26:19.650Z,99405.09
2024-05-09T20:31:25.566Z,99401.11
2024-05-09T20:36:28.857Z,99400.60
2024-05-09T20:41:33.644Z,99401.99
2024-05-09T20:46:38.267Z,99401.55
2024-05-09T20:51:41.325Z,99403.43
2024-05-09T20:56:44.445Z,99404.98
2024-05-09T21:01:49.297Z,99391.55
2024-05-09T21:06:52.926Z,99400.98
2024-05-09T21:11:56.154Z,99408.70
2024-05-09T21:16:59.335Z,99406.01
2024-05-09T21:22:03.271Z,99404.17
2024-05-09T21:27:06.293Z,99407.65
2024-05-09T21:32:11.138Z,99401.96
2024-05-09T21:37:16.782Z,99404.20
2024-05-09T21:42:20.084Z,99406.33
2024-05-09T21:47:23.820Z,99412.11
2024-05-09T21:52:27.112Z,99414.94
2024-05-09T21:57:30.018Z,99417.91
2024-05-09T22:02:37.064Z,99415.16
2024-05-09T22:07:40.538Z,99413.70
2024-05-09T22:12:43.477Z,99408.98
2024-05-09T22:17:46.599Z,99403.20
2024-05-09T22:22:49.637Z,99403.59
2024-05-09T22:27:53.000Z,99405.31
2024-05-09T22:32:56.562Z,99398.55
2024-05-09T22:38:00.048Z,99397.95
2024-05-09T22:43:04.594Z,99400.35
2024-05-09T22:48:09.102Z,99400.81
2024-05-09T22:53:12.914Z,99400.95
2024-05-09T22:58:16.325Z,99394.58
2024-05-09T23:03:21.516Z,99393.39
2024-05-09T23:08:25.236Z,99391.14
2024-05-09T23:13:28.362Z,99386.48
2024-05-09T23:18:31.491Z,99391.20
2024-05-09T23:23:34.572Z,99390.89
2024-05-09T23:28:37.670Z,99391.64
2024-05-09T23:33:47.204Z,99397.38
2024-05-09T23:38:50.454Z,99400.05
2024-05-09T23:43:53.434Z,99395.95
2024-05-09T23:48:56.429Z,99398.60
2024-05-09T23:53:59.427Z,99397.59
2024-05-09T23:59:02.364Z,99400.94
